Time;durP1;ratioP1;P1;durP2;ratioP2;P2;SDS_P1;SDS_P2;PMS_P1;PMS_P2;Temp;Humidity;BMP_temperature;BMP_pressure;BME280_temperature;BME280_humidity;BME280_pressure;Samples;Min_cycle;Max_cycle;Signal;HPM_P1;HPM_P2
2022/09/22 00:01:26;;;;;;;23.33;9.68;;;;;;;;;;5019002;28;20798;-67
2022/09/22 00:03:56;;;;;;;23.83;9.80;;;;;;;;;;5020497;28;20052;-66
2022/09/22 00:06:23;;;;;;;22.00;9.80;;;;;;;;;;5018407;28;20040;-67
2022/09/22 00:08:51;;;;;;;21.00;10.57;;;;;;;;;;5019271;28;20162;-66
2022/09/22 00:11:17;;;;;;;18.58;9.82;;;;;;;;;;5020043;28;20151;-67
2022/09/22 00:13:53;;;;;;;23.58;10.30;;;;;;;;;;5020791;28;20051;-68
2022/09/22 00:16:27;;;;;;;21.00;9.80;;;;;;;;;;5020841;28;20278;-69
2022/09/22 00:18:54;;;;;;;15.65;8.50;;;;;;;;;;5019695;28;20047;-67
2022/09/22 00:21:21;;;;;;;19.35;8.32;;;;;;;;;;5012147;28;20131;-69
2022/09/22 00:23:47;;;;;;;15.75;7.75;;;;;;;;;;5019919;28;20704;-67
2022/09/22 00:26:17;;;;;;;18.23;7.38;;;;;;;;;;5016868;28;20126;-68
2022/09/22 00:28:44;;;;;;;13.63;7.20;;;;;;;;;;5019530;28;20618;-68
2022/09/22 00:31:16;;;;;;;17.15;7.15;;;;;;;;;;5019267;28;20053;-68
2022/09/22 00:33:45;;;;;;;14.73;6.20;;;;;;;;;;5020917;28;20040;-66
2022/09/22 00:36:10;;;;;;;17.98;6.60;;;;;;;;;;5019734;28;20032;-66
2022/09/22 00:38:39;;;;;;;17.40;7.40;;;;;;;;;;5051121;28;20053;-69
2022/09/22 00:41:09;;;;;;;14.40;6.20;;;;;;;;;;5020826;28;20117;-68
2022/09/22 00:43:35;;;;;;;12.48;6.10;;;;;;;;;;5020872;28;20033;-67
2022/09/22 00:46:11;;;;;;;15.48;6.53;;;;;;;;;;5035220;28;20047;-67
2022/09/22 00:48:44;;;;;;;17.48;6.18;;;;;;;;;;5020783;28;20130;-67
2022/09/22 00:51:13;;;;;;;15.32;5.88;;;;;;;;;;5021153;28;20080;-68
2022/09/22 00:53:39;;;;;;;16.92;7.18;;;;;;;;;;5018597;28;20811;-66
2022/09/22 00:56:23;;;;;;;18.80;7.45;;;;;;;;;;5013823;28;20041;-68
2022/09/22 00:58:51;;;;;;;19.10;9.68;;;;;;;;;;5019535;28;22538;-66
2022/09/22 01:01:18;;;;;;;18.80;9.05;;;;;;;;;;5023341;28;20487;-67
2022/09/22 01:03:44;;;;;;;19.40;9.25;;;;;;;;;;5020550;28;20175;-67
2022/09/22 01:06:11;;;;;;;17.30;9.05;;;;;;;;;;5020176;28;20762;-67
2022/09/22 01:08:37;;;;;;;16.88;7.78;;;;;;;;;;5019821;28;20060;-67
2022/09/22 01:11:02;;;;;;;15.80;8.25;;;;;;;;;;5020121;28;20159;-67
2022/09/22 01:13:54;;;;;;;14.77;7.50;;;;;;;;;;5020037;28;20033;-66
2022/09/22 01:16:30;;;;;;;20.10;8.25;;;;;;;;;;5019972;28;20037;-67
2022/09/22 01:18:58;;;;;;;18.65;8.38;;;;;;;;;;5019607;28;20028;-67
2022/09/22 01:21:41;;;;;;;14.95;7.85;;;;;;;;;;5019469;28;20040;-69
2022/09/22 01:24:09;;;;;;;20.15;9.90;;;;;;;;;;5018888;28;20815;-68
2022/09/22 01:26:39;;;;;;;18.83;8.50;;;;;;;;;;5019929;28;20048;-68
2022/09/22 01:29:23;;;;;;;17.27;9.35;;;;;;;;;;5019614;28;21282;-67
2022/09/22 01:32:04;;;;;;;21.83;8.93;;;;;;;;;;5035098;28;20164;-67
2022/09/22 01:34:55;;;;;;;23.20;10.13;;;;;;;;;;5028893;28;20068;-69
2022/09/22 01:37:28;;;;;;;21.80;9.90;;;;;;;;;;5019109;28;20053;-66
2022/09/22 01:39:59;;;;;;;15.35;9.38;;;;;;;;;;5019780;28;20851;-66
2022/09/22 01:42:30;;;;;;;18.25;9.77;;;;;;;;;;5018812;28;20037;-67
2022/09/22 01:44:59;;;;;;;16.90;9.02;;;;;;;;;;5011762;28;20040;-67
2022/09/22 01:47:33;;;;;;;18.60;8.25;;;;;;;;;;5020080;28;20032;-66
2022/09/22 01:50:01;;;;;;;23.58;9.60;;;;;;;;;;5033654;28;20580;-67
2022/09/22 01:52:28;;;;;;;19.05;8.57;;;;;;;;;;5020536;28;20061;-68
2022/09/22 01:54:54;;;;;;;18.70;8.35;;;;;;;;;;5020502;28;20036;-66
2022/09/22 01:57:25;;;;;;;15.90;8.77;;;;;;;;;;5018872;28;20040;-67
2022/09/22 01:59:54;;;;;;;21.25;8.55;;;;;;;;;;5019024;28;20055;-68
2022/09/22 02:02:41;;;;;;;17.73;7.60;;;;;;;;;;5018900;28;20059;-67
2022/09/22 02:05:12;;;;;;;15.07;8.52;;;;;;;;;;5019469;28;20056;-66
2022/09/22 02:07:42;;;;;;;17.38;8.30;;;;;;;;;;5019584;28;20087;-67
2022/09/22 02:10:11;;;;;;;21.58;9.32;;;;;;;;;;5018881;28;20044;-66
2022/09/22 02:12:37;;;;;;;21.58;9.55;;;;;;;;;;5011489;28;20032;-68
2022/09/22 02:15:04;;;;;;;19.17;9.68;;;;;;;;;;5018806;28;20032;-68
2022/09/22 02:17:29;;;;;;;19.17;10.20;;;;;;;;;;5019244;28;20100;-66
2022/09/22 02:19:57;;;;;;;21.13;9.98;;;;;;;;;;5018830;28;20824;-68
2022/09/22 02:22:25;;;;;;;28.25;11.63;;;;;;;;;;5018358;28;20032;-66
2022/09/22 02:24:53;;;;;;;23.90;11.57;;;;;;;;;;5034291;28;20032;-67
2022/09/22 02:27:25;;;;;;;26.88;11.73;;;;;;;;;;5017796;28;20142;-66
2022/09/22 02:30:02;;;;;;;26.65;11.40;;;;;;;;;;5018632;28;20857;-68
2022/09/22 02:32:28;;;;;;;27.83;13.15;;;;;;;;;;5048150;28;20040;-68
2022/09/22 02:34:56;;;;;;;32.83;12.60;;;;;;;;;;5017532;28;20233;-68
2022/09/22 02:37:25;;;;;;;32.42;14.20;;;;;;;;;;5018876;28;20029;-66
2022/09/22 02:40:03;;;;;;;27.55;12.95;;;;;;;;;;5017663;28;21236;-66
2022/09/22 02:42:33;;;;;;;21.80;11.45;;;;;;;;;;5049938;28;20900;-66
2022/09/22 02:45:10;;;;;;;24.85;12.30;;;;;;;;;;5018782;28;20036;-66
2022/09/22 02:47:41;;;;;;;23.33;11.45;;;;;;;;;;5017668;28;20047;-66
2022/09/22 02:50:08;;;;;;;20.33;11.35;;;;;;;;;;5019849;28;20936;-67
2022/09/22 02:52:35;;;;;;;22.60;11.43;;;;;;;;;;5017610;28;20134;-67
2022/09/22 02:55:03;;;;;;;21.80;10.30;;;;;;;;;;5035167;28;20033;-68
2022/09/22 02:57:28;;;;;;;20.95;10.73;;;;;;;;;;5049704;28;20036;-66
2022/09/22 02:59:54;;;;;;;21.05;11.35;;;;;;;;;;5019179;28;20032;-66
2022/09/22 03:02:21;;;;;;;26.45;11.30;;;;;;;;;;5018916;28;20039;-67
2022/09/22 03:04:47;;;;;;;21.40;10.88;;;;;;;;;;5027241;28;20033;-66
2022/09/22 03:07:12;;;;;;;27.27;11.82;;;;;;;;;;5021841;28;20564;-68
2022/09/22 03:09:39;;;;;;;32.42;12.18;;;;;;;;;;5049313;28;20173;-66
2022/09/22 03:12:05;;;;;;;26.40;11.18;;;;;;;;;;5018750;28;20032;-66
2022/09/22 03:14:33;;;;;;;24.10;11.65;;;;;;;;;;5019037;28;20607;-67
2022/09/22 03:17:00;;;;;;;27.40;10.90;;;;;;;;;;5017938;28;20935;-67
2022/09/22 03:19:25;;;;;;;22.38;11.45;;;;;;;;;;5048896;28;20109;-67
2022/09/22 03:21:51;;;;;;;21.98;10.95;;;;;;;;;;5019865;28;20034;-67
2022/09/22 03:24:16;;;;;;;23.00;11.48;;;;;;;;;;5018455;28;20033;-66
2022/09/22 03:26:44;;;;;;;24.40;12.15;;;;;;;;;;5017387;28;20144;-66
2022/09/22 03:29:11;;;;;;;21.92;11.23;;;;;;;;;;5033523;28;20029;-68
2022/09/22 03:31:36;;;;;;;23.95;11.27;;;;;;;;;;5018885;28;20327;-66
2022/09/22 03:34:02;;;;;;;24.20;11.00;;;;;;;;;;5009238;28;20128;-67
2022/09/22 03:36:29;;;;;;;20.80;10.48;;;;;;;;;;5018200;28;20068;-68
2022/09/22 03:38:58;;;;;;;20.02;11.30;;;;;;;;;;5018554;28;20932;-67
2022/09/22 03:41:24;;;;;;;22.58;10.77;;;;;;;;;;5018973;28;20556;-66
2022/09/22 03:43:49;;;;;;;20.35;9.52;;;;;;;;;;5018610;28;20036;-67
2022/09/22 03:46:15;;;;;;;18.38;9.30;;;;;;;;;;5017929;28;20123;-67
2022/09/22 03:48:43;;;;;;;20.98;9.40;;;;;;;;;;5012977;28;21354;-67
2022/09/22 03:51:08;;;;;;;22.35;9.40;;;;;;;;;;5021032;28;20055;-68
2022/09/22 03:53:36;;;;;;;26.67;12.98;;;;;;;;;;5022833;28;20186;-67
2022/09/22 03:56:05;;;;;;;22.20;12.05;;;;;;;;;;5021732;28;20075;-68
2022/09/22 03:58:31;;;;;;;27.58;11.40;;;;;;;;;;5020937;28;20040;-67
2022/09/22 04:00:56;;;;;;;20.95;11.20;;;;;;;;;;5013435;28;20036;-66
2022/09/22 04:03:23;;;;;;;19.88;10.77;;;;;;;;;;5021232;28;20037;-66
2022/09/22 04:05:49;;;;;;;16.52;9.48;;;;;;;;;;5013541;28;20029;-67
2022/09/22 04:08:14;;;;;;;20.27;9.18;;;;;;;;;;5019325;28;20040;-68
2022/09/22 04:10:39;;;;;;;20.42;8.40;;;;;;;;;;5021161;28;20040;-67
2022/09/22 04:13:04;;;;;;;20.90;9.07;;;;;;;;;;5020930;28;20132;-66
2022/09/22 04:15:30;;;;;;;24.45;9.82;;;;;;;;;;5012935;28;20559;-67
2022/09/22 04:17:58;;;;;;;20.50;10.30;;;;;;;;;;5034871;28;20037;-66
2022/09/22 04:20:23;;;;;;;24.65;12.15;;;;;;;;;;5020367;28;20122;-67
2022/09/22 04:22:48;;;;;;;27.77;13.55;;;;;;;;;;5023353;28;20040;-68
2022/09/22 04:25:16;;;;;;;23.85;11.57;;;;;;;;;;5020113;28;20504;-67
2022/09/22 04:27:41;;;;;;;29.92;12.50;;;;;;;;;;5036483;28;20044;-68
2022/09/22 04:30:09;;;;;;;24.90;12.98;;;;;;;;;;5052635;28;20068;-66
2022/09/22 04:32:35;;;;;;;26.80;13.65;;;;;;;;;;5052187;27;20044;-67
2022/09/22 04:35:00;;;;;;;27.75;14.70;;;;;;;;;;5022124;28;20092;-67
2022/09/22 04:37:31;;;;;;;35.45;14.27;;;;;;;;;;5034909;28;20037;-67
2022/09/22 04:39:58;;;;;;;27.13;13.73;;;;;;;;;;5011879;28;20114;-67
2022/09/22 04:42:23;;;;;;;30.52;14.57;;;;;;;;;;5020684;28;20104;-67
2022/09/22 04:44:48;;;;;;;28.52;15.60;;;;;;;;;;5029445;28;20033;-67
2022/09/22 04:47:13;;;;;;;30.83;15.02;;;;;;;;;;5019574;28;20071;-66
2022/09/22 04:49:39;;;;;;;27.92;15.85;;;;;;;;;;5035429;28;20091;-67
2022/09/22 04:52:06;;;;;;;29.52;16.23;;;;;;;;;;5020415;28;20139;-66
2022/09/22 04:54:32;;;;;;;32.13;17.48;;;;;;;;;;5021364;28;20727;-67
2022/09/22 04:56:57;;;;;;;33.92;20.52;;;;;;;;;;5021100;28;20076;-66
2022/09/22 04:59:23;;;;;;;41.45;21.38;;;;;;;;;;5018930;28;20090;-66
2022/09/22 05:01:51;;;;;;;36.75;22.70;;;;;;;;;;5020171;28;20156;-67
2022/09/22 05:04:19;;;;;;;58.25;26.77;;;;;;;;;;5020355;28;20037;-67
2022/09/22 05:06:44;;;;;;;45.00;24.98;;;;;;;;;;5011692;28;20036;-66
2022/09/22 05:09:10;;;;;;;40.72;24.23;;;;;;;;;;5021852;28;20120;-68
2022/09/22 05:11:35;;;;;;;47.38;24.77;;;;;;;;;;5020283;28;20170;-68
2022/09/22 05:14:01;;;;;;;43.10;26.50;;;;;;;;;;5019809;28;20043;-69
2022/09/22 05:16:27;;;;;;;45.75;27.63;;;;;;;;;;5020305;28;20036;-69
2022/09/22 05:18:52;;;;;;;49.38;29.83;;;;;;;;;;5018812;28;20075;-68
2022/09/22 05:21:17;;;;;;;46.80;28.80;;;;;;;;;;5020734;28;20068;-68
2022/09/22 05:23:44;;;;;;;41.88;27.58;;;;;;;;;;5018390;28;20029;-69
2022/09/22 05:26:11;;;;;;;52.65;31.60;;;;;;;;;;5019560;28;20041;-68
2022/09/22 05:28:37;;;;;;;46.65;30.25;;;;;;;;;;5017244;28;20060;-69
2022/09/22 05:31:02;;;;;;;49.33;33.28;;;;;;;;;;5019796;28;20078;-69
2022/09/22 05:33:29;;;;;;;46.95;31.50;;;;;;;;;;5022395;28;20044;-69
2022/09/22 05:35:55;;;;;;;56.60;34.03;;;;;;;;;;5028662;28;20743;-69
2022/09/22 05:38:20;;;;;;;52.42;32.92;;;;;;;;;;5020712;28;20126;-69
2022/09/22 05:40:46;;;;;;;52.95;34.08;;;;;;;;;;5020626;28;20118;-69
2022/09/22 05:43:11;;;;;;;47.60;32.53;;;;;;;;;;5017493;28;20063;-69
2022/09/22 05:45:36;;;;;;;46.75;32.65;;;;;;;;;;5035742;28;20131;-69
2022/09/22 05:48:02;;;;;;;50.72;35.40;;;;;;;;;;5027283;28;20037;-68
2022/09/22 05:50:27;;;;;;;53.92;34.35;;;;;;;;;;5020453;28;20141;-69
2022/09/22 05:53:00;;;;;;;46.13;33.22;;;;;;;;;;5018925;28;20039;-68
2022/09/22 05:55:26;;;;;;;45.03;32.95;;;;;;;;;;5019952;28;20102;-68
2022/09/22 05:57:55;;;;;;;51.78;34.30;;;;;;;;;;5034059;28;20099;-71
2022/09/22 06:00:20;;;;;;;44.50;33.40;;;;;;;;;;5019730;28;20044;-68
2022/09/22 06:02:47;;;;;;;46.47;33.60;;;;;;;;;;5019496;28;20037;-68
2022/09/22 06:05:15;;;;;;;50.20;34.80;;;;;;;;;;5018944;28;20068;-69
2022/09/22 06:07:40;;;;;;;45.50;32.38;;;;;;;;;;5019750;28;20055;-70
2022/09/22 06:10:06;;;;;;;50.13;33.17;;;;;;;;;;5017850;28;20951;-69
2022/09/22 06:12:31;;;;;;;50.83;33.42;;;;;;;;;;5019305;28;20037;-69
2022/09/22 06:14:56;;;;;;;48.72;33.72;;;;;;;;;;5017088;28;20040;-69
2022/09/22 06:17:22;;;;;;;52.17;34.63;;;;;;;;;;5019307;28;20039;-68
2022/09/22 06:19:49;;;;;;;43.58;31.48;;;;;;;;;;5019695;28;20044;-69
2022/09/22 06:22:14;;;;;;;48.17;33.97;;;;;;;;;;5033027;28;20037;-68
2022/09/22 06:24:39;;;;;;;41.88;31.90;;;;;;;;;;5016930;28;21507;-68
2022/09/22 06:27:05;;;;;;;41.55;31.65;;;;;;;;;;5014709;28;20098;-67
2022/09/22 06:29:31;;;;;;;39.28;29.85;;;;;;;;;;5051639;28;20044;-70
2022/09/22 06:31:56;;;;;;;37.92;26.48;;;;;;;;;;5010451;28;20029;-69
2022/09/22 06:34:25;;;;;;;38.95;26.38;;;;;;;;;;5018905;28;20059;-69
2022/09/22 06:36:53;;;;;;;34.55;25.10;;;;;;;;;;5019174;28;20178;-68
2022/09/22 06:39:18;;;;;;;41.63;26.48;;;;;;;;;;5018147;28;20091;-69
2022/09/22 06:41:43;;;;;;;38.45;26.17;;;;;;;;;;5019034;28;20147;-70
2022/09/22 06:44:11;;;;;;;37.15;25.20;;;;;;;;;;5034287;28;22409;-69
2022/09/22 06:46:38;;;;;;;32.33;21.58;;;;;;;;;;5024376;28;20063;-68
2022/09/22 06:49:04;;;;;;;31.67;21.30;;;;;;;;;;5033137;28;21096;-69
2022/09/22 06:51:31;;;;;;;35.72;20.90;;;;;;;;;;5019619;28;20076;-70
2022/09/22 06:53:57;;;;;;;29.17;20.45;;;;;;;;;;5050291;28;21203;-69
2022/09/22 06:56:24;;;;;;;26.30;16.80;;;;;;;;;;5016379;28;20061;-71
2022/09/22 06:58:51;;;;;;;25.85;17.33;;;;;;;;;;5015019;28;20033;-69
2022/09/22 07:01:18;;;;;;;29.67;16.50;;;;;;;;;;5015287;28;20585;-69
2022/09/22 07:03:43;;;;;;;23.35;15.88;;;;;;;;;;5016627;28;20193;-70
2022/09/22 07:06:09;;;;;;;23.13;15.93;;;;;;;;;;5018995;28;20785;-69
2022/09/22 07:08:37;;;;;;;25.67;16.83;;;;;;;;;;5014089;28;20033;-70
2022/09/22 07:11:09;;;;;;;25.65;15.90;;;;;;;;;;5045106;28;20051;-68
2022/09/22 07:13:44;;;;;;;21.33;13.85;;;;;;;;;;5015353;28;20396;-69
2022/09/22 07:16:16;;;;;;;23.10;14.90;;;;;;;;;;5015789;28;20262;-69
2022/09/22 07:18:43;;;;;;;22.20;14.70;;;;;;;;;;5046683;28;20131;-69
2022/09/22 07:21:15;;;;;;;17.63;11.40;;;;;;;;;;5019569;28;20130;-70
2022/09/22 07:23:42;;;;;;;23.73;12.85;;;;;;;;;;5031314;28;20040;-68
2022/09/22 07:26:10;;;;;;;21.23;12.63;;;;;;;;;;5023932;28;20966;-71
2022/09/22 07:28:35;;;;;;;20.27;12.30;;;;;;;;;;5019642;28;20083;-69
2022/09/22 07:31:05;;;;;;;13.00;9.10;;;;;;;;;;5019865;28;20075;-69
2022/09/22 07:33:36;;;;;;;15.18;8.43;;;;;;;;;;5016711;28;20036;-69
2022/09/22 07:36:07;;;;;;;11.45;6.28;;;;;;;;;;5009624;28;20033;-70
2022/09/22 07:38:40;;;;;;;12.13;6.28;;;;;;;;;;5018648;28;20037;-69
2022/09/22 07:41:07;;;;;;;14.15;5.85;;;;;;;;;;5050753;28;20037;-69
2022/09/22 07:43:32;;;;;;;12.10;5.70;;;;;;;;;;5019157;28;20567;-69
2022/09/22 07:45:58;;;;;;;14.25;6.10;;;;;;;;;;5019481;28;20089;-68
2022/09/22 07:48:36;;;;;;;11.48;5.18;;;;;;;;;;5032492;28;20036;-66
2022/09/22 07:51:07;;;;;;;10.93;4.97;;;;;;;;;;5009494;28;20040;-68
2022/09/22 07:53:33;;;;;;;13.48;5.80;;;;;;;;;;5018098;28;20052;-69
2022/09/22 07:56:05;;;;;;;10.57;5.47;;;;;;;;;;5017359;28;20032;-69
2022/09/22 07:58:32;;;;;;;;;;;;;;;;;;5017676;28;20032;-68
2022/09/22 08:01:04;;;;;;;15.43;6.57;;;;;;;;;;5018365;28;20124;-69
2022/09/22 08:03:29;;;;;;;15.27;6.28;;;;;;;;;;5019067;28;20038;-69
2022/09/22 08:05:58;;;;;;;16.05;6.57;;;;;;;;;;5019659;28;20040;-68
2022/09/22 08:08:23;;;;;;;12.65;5.82;;;;;;;;;;5018713;28;20419;-69
2022/09/22 08:10:48;;;;;;;12.90;5.40;;;;;;;;;;5018761;28;20155;-69
2022/09/22 08:13:14;;;;;;;12.40;6.57;;;;;;;;;;5018331;28;20348;-68
2022/09/22 08:15:40;;;;;;;14.50;6.32;;;;;;;;;;5019298;28;20029;-69
2022/09/22 08:18:07;;;;;;;15.68;5.70;;;;;;;;;;5032703;28;20405;-69
2022/09/22 08:20:32;;;;;;;15.35;6.22;;;;;;;;;;5030230;28;20115;-72
2022/09/22 08:23:00;;;;;;;11.98;5.80;;;;;;;;;;5030840;28;20969;-69
2022/09/22 08:25:25;;;;;;;16.73;6.28;;;;;;;;;;5014986;28;20444;-69
2022/09/22 08:27:50;;;;;;;18.45;6.57;;;;;;;;;;5018605;28;22005;-69
2022/09/22 08:30:18;;;;;;;16.17;6.78;;;;;;;;;;5016977;28;20185;-70
2022/09/22 08:32:44;;;;;;;17.65;6.65;;;;;;;;;;5018444;28;20033;-70
2022/09/22 08:35:12;;;;;;;14.50;6.30;;;;;;;;;;5015533;28;20619;-71
2022/09/22 08:37:37;;;;;;;11.90;5.53;;;;;;;;;;5018395;28;20318;-69
2022/09/22 08:40:04;;;;;;;15.50;6.15;;;;;;;;;;5017388;28;20037;-69
2022/09/22 08:42:30;;;;;;;12.43;6.07;;;;;;;;;;5017503;28;20180;-69
2022/09/22 08:45:01;;;;;;;15.18;6.07;;;;;;;;;;5032116;28;20604;-70
2022/09/22 08:53:14;;;;;;;15.35;6.55;;;;;;;;;;5017558;28;20106;-69
2022/09/22 08:55:43;;;;;;;14.98;6.00;;;;;;;;;;5018582;28;20576;-71
2022/09/22 08:58:26;;;;;;;15.40;5.70;;;;;;;;;;5016851;28;20136;-69
2022/09/22 09:01:00;;;;;;;14.63;5.47;;;;;;;;;;5017457;28;20041;-70
2022/09/22 09:03:43;;;;;;;17.60;6.40;;;;;;;;;;5016596;28;20658;-70
2022/09/22 09:06:17;;;;;;;18.17;7.00;;;;;;;;;;5008631;28;20326;-71
2022/09/22 09:08:49;;;;;;;13.18;5.03;;;;;;;;;;5017991;28;20182;-71
2022/09/22 09:11:23;;;;;;;17.17;7.40;;;;;;;;;;5010465;28;20112;-70
2022/09/22 09:14:11;;;;;;;22.27;7.68;;;;;;;;;;5017671;28;21773;-69
2022/09/22 09:16:57;;;;;;;19.60;6.10;;;;;;;;;;5018744;28;20091;-70
2022/09/22 09:19:28;;;;;;;12.98;5.25;;;;;;;;;;5017459;28;20153;-69
2022/09/22 09:22:00;;;;;;;16.48;5.93;;;;;;;;;;5031437;28;20436;-69
2022/09/22 09:24:25;;;;;;;11.32;5.22;;;;;;;;;;5030140;28;20094;-68
2022/09/22 09:26:51;;;;;;;8.75;4.00;;;;;;;;;;5017250;28;20040;-69
2022/09/22 09:29:20;;;;;;;7.53;4.22;;;;;;;;;;5015528;28;20028;-69
2022/09/22 09:31:47;;;;;;;9.88;3.83;;;;;;;;;;5017608;28;20149;-66
2022/09/22 09:34:19;;;;;;;15.73;5.43;;;;;;;;;;5016740;28;20044;-69
2022/09/22 09:36:47;;;;;;;13.18;4.95;;;;;;;;;;5016755;28;20445;-70
2022/09/22 09:39:15;;;;;;;11.07;3.92;;;;;;;;;;5017024;28;20033;-69
2022/09/22 09:41:42;;;;;;;9.07;3.60;;;;;;;;;;5016183;28;20037;-67
2022/09/22 09:44:11;;;;;;;9.38;3.53;;;;;;;;;;5015631;28;20041;-67
2022/09/22 09:47:16;;;;;;;7.70;3.35;;;;;;;;;;5015859;28;20036;-69
2022/09/22 09:49:41;;;;;;;8.20;3.47;;;;;;;;;;4984119;28;20294;-66
2022/09/22 09:52:09;;;;;;;8.02;3.50;;;;;;;;;;5010129;28;20744;-67
2022/09/22 09:54:36;;;;;;;7.68;3.20;;;;;;;;;;5015841;28;20177;-67
2022/09/22 09:57:05;;;;;;;9.77;3.30;;;;;;;;;;5017771;28;20068;-66
2022/09/22 10:02:16;;;;;;;9.25;3.60;;;;;;;;;;5016196;28;20037;-67
2022/09/22 10:04:47;;;;;;;7.60;3.05;;;;;;;;;;5015075;28;20090;-67
2022/09/22 10:07:14;;;;;;;8.77;2.80;;;;;;;;;;5015724;28;20131;-66
2022/09/22 10:09:40;;;;;;;8.55;3.03;;;;;;;;;;5016218;28;20033;-66
2022/09/22 10:12:05;;;;;;;8.20;3.10;;;;;;;;;;5016549;28;20376;-66
2022/09/22 10:14:32;;;;;;;8.35;3.15;;;;;;;;;;5016775;28;20037;-68
2022/09/22 10:16:57;;;;;;;8.20;3.80;;;;;;;;;;5032428;28;20491;-67
2022/09/22 10:19:29;;;;;;;6.40;2.80;;;;;;;;;;5017950;28;20039;-66
2022/09/22 10:22:14;;;;;;;10.02;2.80;;;;;;;;;;5013797;28;20032;-68
2022/09/22 10:24:40;;;;;;;6.63;2.90;;;;;;;;;;5015956;28;20062;-68
2022/09/22 10:27:18;;;;;;;6.18;3.03;;;;;;;;;;5030231;28;20033;-68
2022/09/22 10:29:44;;;;;;;7.40;3.08;;;;;;;;;;5015987;28;20043;-67
2022/09/22 10:32:14;;;;;;;7.85;3.90;;;;;;;;;;5018864;28;20920;-68
2022/09/22 10:34:46;;;;;;;9.85;3.85;;;;;;;;;;5019903;28;20036;-67
2022/09/22 10:37:12;;;;;;;8.07;3.28;;;;;;;;;;5020061;28;20102;-68
2022/09/22 10:39:40;;;;;;;10.27;3.30;;;;;;;;;;5020033;28;20036;-68
2022/09/22 10:42:14;;;;;;;7.47;3.17;;;;;;;;;;5019661;28;20037;-68
2022/09/22 10:44:40;;;;;;;9.95;4.05;;;;;;;;;;5010278;28;20059;-68
2022/09/22 10:47:05;;;;;;;8.25;4.00;;;;;;;;;;5034870;28;20025;-68
2022/09/22 10:49:31;;;;;;;8.02;3.40;;;;;;;;;;5019265;28;20040;-70
2022/09/22 10:52:05;;;;;;;9.07;3.85;;;;;;;;;;5019252;28;20054;-68
2022/09/22 10:54:31;;;;;;;7.07;3.10;;;;;;;;;;5015381;28;20296;-67
2022/09/22 10:57:07;;;;;;;7.00;3.20;;;;;;;;;;5019028;28;20029;-68
2022/09/22 10:59:33;;;;;;;9.38;3.97;;;;;;;;;;5016478;28;20033;-67
2022/09/22 11:02:01;;;;;;;11.18;3.90;;;;;;;;;;5020879;28;20037;-68
2022/09/22 11:04:32;;;;;;;10.02;3.65;;;;;;;;;;5019964;28;20164;-68
2022/09/22 11:12:58;;;;;;;8.52;3.55;;;;;;;;;;5018967;28;20039;-68
2022/09/22 11:15:42;;;;;;;6.70;3.70;;;;;;;;;;5019240;28;20208;-68
2022/09/22 11:18:22;;;;;;;6.55;3.38;;;;;;;;;;5039790;28;20220;-71
2022/09/22 11:20:57;;;;;;;7.78;3.55;;;;;;;;;;5015186;28;20083;-72
2022/09/22 11:23:32;;;;;;;8.13;3.80;;;;;;;;;;5016065;28;20094;-74
2022/09/22 11:26:00;;;;;;;6.40;3.20;;;;;;;;;;5016417;28;20028;-72
2022/09/22 11:28:29;;;;;;;7.55;3.78;;;;;;;;;;5016375;28;20091;-72
2022/09/22 11:30:57;;;;;;;7.43;3.50;;;;;;;;;;5014906;28;22179;-72
2022/09/22 11:33:50;;;;;;;5.60;3.72;;;;;;;;;;5015709;28;20028;-74
2022/09/22 11:36:15;;;;;;;9.50;4.22;;;;;;;;;;5015795;28;20481;-73
2022/09/22 11:38:58;;;;;;;7.78;4.05;;;;;;;;;;5017430;28;20549;-73
2022/09/22 11:41:30;;;;;;;7.97;4.22;;;;;;;;;;5016420;28;20779;-73
2022/09/22 11:44:14;;;;;;;6.80;4.05;;;;;;;;;;5015770;28;20294;-73
2022/09/22 11:46:59;;;;;;;6.43;4.18;;;;;;;;;;5016941;28;20501;-74
2022/09/22 11:49:45;;;;;;;6.45;4.28;;;;;;;;;;5007810;28;20570;-73
2022/09/22 11:52:14;;;;;;;9.57;4.63;;;;;;;;;;5017101;28;20037;-73
2022/09/22 11:54:44;;;;;;;8.95;4.50;;;;;;;;;;5029418;28;20518;-73
2022/09/22 11:57:11;;;;;;;11.55;4.47;;;;;;;;;;5015203;28;20472;-72
2022/09/22 11:59:36;;;;;;;8.30;5.30;;;;;;;;;;5017604;28;22254;-74
2022/09/22 12:02:09;;;;;;;7.70;4.75;;;;;;;;;;5017180;28;20086;-72
2022/09/22 12:04:53;;;;;;;8.93;5.47;;;;;;;;;;5016167;28;20075;-72
2022/09/22 12:07:27;;;;;;;11.07;5.55;;;;;;;;;;5016596;28;21911;-73
2022/09/22 12:09:55;;;;;;;9.32;4.97;;;;;;;;;;5016681;28;20075;-71
2022/09/22 12:12:21;;;;;;;12.15;4.35;;;;;;;;;;5024714;28;20032;-73
2022/09/22 12:14:55;;;;;;;12.20;3.92;;;;;;;;;;5017117;28;20033;-73
2022/09/22 12:17:26;;;;;;;8.00;4.43;;;;;;;;;;5017484;28;20086;-73
2022/09/22 12:19:59;;;;;;;7.63;4.30;;;;;;;;;;5017261;28;20028;-72
2022/09/22 12:22:31;;;;;;;8.10;4.53;;;;;;;;;;5013268;28;20033;-74
2022/09/22 12:24:57;;;;;;;;;;;;;;;;;;5017448;28;20360;-73
2022/09/22 12:27:26;;;;;;;8.40;4.90;;;;;;;;;;5018405;28;19962;-73
2022/09/22 12:29:56;;;;;;;8.13;5.05;;;;;;;;;;5017011;28;20507;-72
2022/09/22 12:32:35;;;;;;;10.07;5.30;;;;;;;;;;5020387;28;20028;-73
2022/09/22 12:35:03;;;;;;;9.20;5.30;;;;;;;;;;5020463;28;20029;-73
2022/09/22 12:37:35;;;;;;;8.05;5.20;;;;;;;;;;5019290;28;20028;-72
2022/09/22 12:40:19;;;;;;;9.27;5.35;;;;;;;;;;5018472;28;20040;-73
2022/09/22 12:42:49;;;;;;;9.43;5.50;;;;;;;;;;5019750;28;20033;-74
2022/09/22 12:45:14;;;;;;;8.77;5.43;;;;;;;;;;5022300;28;20032;-69
2022/09/22 12:47:40;;;;;;;10.68;5.35;;;;;;;;;;5023169;28;20965;-71
2022/09/22 12:50:06;;;;;;;12.43;6.18;;;;;;;;;;5023865;28;20064;-73
2022/09/22 12:52:56;;;;;;;10.32;5.78;;;;;;;;;;5023777;28;20044;-74
2022/09/22 12:55:27;;;;;;;9.20;4.80;;;;;;;;;;5022118;28;20037;-75
2022/09/22 12:57:52;;;;;;;;;;;;;;;;;;5022527;28;20036;-74
2022/09/22 13:00:21;;;;;;;7.00;4.73;;;;;;;;;;5039362;28;19919;-75
2022/09/22 13:02:48;;;;;;;7.93;4.90;;;;;;;;;;5027696;28;20272;-74
2022/09/22 13:05:25;;;;;;;9.15;4.93;;;;;;;;;;5026991;28;20041;-72
2022/09/22 13:07:52;;;;;;;9.77;5.22;;;;;;;;;;5024234;28;20121;-74
2022/09/22 13:10:20;;;;;;;8.35;4.63;;;;;;;;;;5020752;28;20127;-70
2022/09/22 13:13:01;;;;;;;7.97;5.20;;;;;;;;;;5037223;28;20045;-75
2022/09/22 13:15:35;;;;;;;9.98;4.50;;;;;;;;;;5021753;28;20052;-74
2022/09/22 13:18:03;;;;;;;7.88;4.30;;;;;;;;;;5023796;28;20037;-74
2022/09/22 13:20:32;;;;;;;9.65;4.47;;;;;;;;;;5020244;28;20048;-74
2022/09/22 13:23:04;;;;;;;7.93;4.38;;;;;;;;;;5021632;28;20029;-73
2022/09/22 13:25:30;;;;;;;11.25;4.80;;;;;;;;;;5020260;28;20132;-75
2022/09/22 13:28:03;;;;;;;8.65;4.30;;;;;;;;;;5022153;28;20043;-77
2022/09/22 13:30:28;;;;;;;8.88;4.97;;;;;;;;;;5021422;28;20202;-76
2022/09/22 13:32:53;;;;;;;9.30;4.72;;;;;;;;;;5020615;28;20259;-74
2022/09/22 13:35:22;;;;;;;7.18;4.20;;;;;;;;;;5021638;28;20043;-76
2022/09/22 13:37:48;;;;;;;8.40;3.88;;;;;;;;;;5022511;28;20036;-75
2022/09/22 13:40:16;;;;;;;7.97;4.50;;;;;;;;;;5034974;28;20044;-74
2022/09/22 13:42:42;;;;;;;10.05;4.68;;;;;;;;;;5022360;28;20047;-78
2022/09/22 13:45:20;;;;;;;7.50;4.57;;;;;;;;;;5036183;28;20029;-74
2022/09/22 13:47:47;;;;;;;7.00;4.32;;;;;;;;;;5019388;28;20137;-76
2022/09/22 13:50:15;;;;;;;14.23;4.80;;;;;;;;;;5020759;28;20057;-76
2022/09/22 13:52:41;;;;;;;7.60;4.47;;;;;;;;;;5023573;28;21168;-76
2022/09/22 13:55:06;;;;;;;8.02;4.75;;;;;;;;;;5029632;28;20032;-76
2022/09/22 13:57:33;;;;;;;7.20;4.57;;;;;;;;;;5021224;28;20899;-75
2022/09/22 13:59:59;;;;;;;8.02;4.70;;;;;;;;;;5021436;28;20032;-71
2022/09/22 14:02:30;;;;;;;7.93;4.55;;;;;;;;;;5015178;28;20290;-75
2022/09/22 14:04:58;;;;;;;7.20;4.53;;;;;;;;;;5016706;28;20624;-74
2022/09/22 14:07:28;;;;;;;8.13;4.43;;;;;;;;;;5015885;28;20428;-74
2022/09/22 14:09:55;;;;;;;6.35;4.57;;;;;;;;;;5013769;28;20497;-75
2022/09/22 14:12:23;;;;;;;8.85;4.78;;;;;;;;;;5016389;28;20037;-73
2022/09/22 14:14:49;;;;;;;7.63;4.75;;;;;;;;;;5033598;28;20050;-72
2022/09/22 14:17:17;;;;;;;9.25;4.75;;;;;;;;;;5015725;28;20036;-69
2022/09/22 14:19:45;;;;;;;7.15;4.43;;;;;;;;;;5015879;28;20424;-73
2022/09/22 14:22:19;;;;;;;10.30;4.80;;;;;;;;;;5015714;28;20094;-74
2022/09/22 14:24:56;;;;;;;7.82;4.55;;;;;;;;;;5030084;28;20770;-75
2022/09/22 14:27:23;;;;;;;9.63;4.75;;;;;;;;;;5016919;28;20255;-76
2022/09/22 14:29:50;;;;;;;7.55;4.38;;;;;;;;;;5017053;28;20459;-68
2022/09/22 14:32:16;;;;;;;8.13;4.38;;;;;;;;;;5014979;28;20488;-76
2022/09/22 14:34:48;;;;;;;6.28;4.50;;;;;;;;;;5007058;28;20028;-75
2022/09/22 14:37:33;;;;;;;10.32;4.68;;;;;;;;;;5014565;28;20049;-76
2022/09/22 14:40:01;;;;;;;11.10;5.30;;;;;;;;;;5046986;28;20140;-74
2022/09/22 14:42:29;;;;;;;8.55;5.20;;;;;;;;;;5035980;28;20939;-74
2022/09/22 14:45:24;;;;;;;6.70;3.90;;;;;;;;;;5035690;28;20058;-78
2022/09/22 14:48:09;;;;;;;6.95;3.88;;;;;;;;;;5011840;28;20040;-76
2022/09/22 14:50:37;;;;;;;11.43;4.10;;;;;;;;;;5038557;28;20519;-76
2022/09/22 14:53:08;;;;;;;10.27;4.40;;;;;;;;;;5036116;28;20033;-75
2022/09/22 14:55:36;;;;;;;10.63;4.00;;;;;;;;;;5035975;28;20165;-75
2022/09/22 14:58:06;;;;;;;9.98;4.28;;;;;;;;;;5011941;28;20172;-75